sensor_id;sensor_type;location;lat;lon;timestamp;pressure;altitude;pressure_sealevel;temperature;humidity
55687;BME280;41911;52.362;4.978;2023-05-08T00:00:07;102092.49;;;15.84;52.59
55687;BME280;41911;52.362;4.978;2023-05-08T00:00:38;102092.01;;;15.79;52.60
55687;BME280;41911;52.362;4.978;2023-05-08T00:01:10;102094.74;;;15.74;52.74
55687;BME280;41911;52.362;4.978;2023-05-08T00:01:41;102094.60;;;15.99;52.78
55687;BME280;41911;52.362;4.978;2023-05-08T00:02:12;102095.40;;;15.70;52.61
55687;BME280;41911;52.362;4.978;2023-05-08T00:02:44;102094.09;;;15.70;52.77
55687;BME280;41911;52.362;4.978;2023-05-08T00:03:15;102097.08;;;15.45;52.99
55687;BME280;41911;52.362;4.978;2023-05-08T00:03:46;102095.13;;;15.28;53.32
55687;BME280;41911;52.362;4.978;2023-05-08T00:04:17;102094.85;;;15.27;53.23
55687;BME280;41911;52.362;4.978;2023-05-08T00:04:48;102095.63;;;15.93;53.14
55687;BME280;41911;52.362;4.978;2023-05-08T00:05:19;102094.94;;;15.63;53.22
55687;BME280;41911;52.362;4.978;2023-05-08T00:05:50;102097.57;;;15.44;53.06
55687;BME280;41911;52.362;4.978;2023-05-08T00:06:21;102098.43;;;15.53;52.97
55687;BME280;41911;52.362;4.978;2023-05-08T00:06:52;102098.03;;;15.61;52.93
55687;BME280;41911;52.362;4.978;2023-05-08T00:07:23;102097.55;;;15.96;52.88
55687;BME280;41911;52.362;4.978;2023-05-08T00:07:53;102099.49;;;15.74;52.90
55687;BME280;41911;52.362;4.978;2023-05-08T00:08:25;102097.31;;;15.77;52.83
55687;BME280;41911;52.362;4.978;2023-05-08T00:08:56;102096.41;;;15.83;52.77
55687;BME280;41911;52.362;4.978;2023-05-08T00:09:27;102094.87;;;15.83;52.84
55687;BME280;41911;52.362;4.978;2023-05-08T00:09:58;102095.30;;;15.89;52.72
55687;BME280;41911;52.362;4.978;2023-05-08T00:10:29;102093.59;;;15.85;52.72
55687;BME280;41911;52.362;4.978;2023-05-08T00:11:00;102092.64;;;15.87;52.69
55687;BME280;41911;52.362;4.978;2023-05-08T00:11:31;102092.05;;;15.92;52.44
55687;BME280;41911;52.362;4.978;2023-05-08T00:12:02;102092.50;;;15.94;52.45
55687;BME280;41911;52.362;4.978;2023-05-08T00:12:33;102090.14;;;15.92;52.48
55687;BME280;41911;52.362;4.978;2023-05-08T00:13:04;102091.19;;;16.04;52.51
55687;BME280;41911;52.362;4.978;2023-05-08T00:13:35;102088.91;;;15.80;52.49
55687;BME280;41911;52.362;4.978;2023-05-08T00:14:08;102089.56;;;16.11;52.25
55687;BME280;41911;52.362;4.978;2023-05-08T00:14:39;102089.97;;;16.06;52.17
55687;BME280;41911;52.362;4.978;2023-05-08T00:15:10;102090.48;;;16.16;52.34
55687;BME280;41911;52.362;4.978;2023-05-08T00:15:41;102086.96;;;16.11;52.14
55687;BME280;41911;52.362;4.978;2023-05-08T00:16:12;102087.32;;;16.19;52.09
55687;BME280;41911;52.362;4.978;2023-05-08T00:16:43;102086.57;;;16.20;52.39
55687;BME280;41911;52.362;4.978;2023-05-08T00:17:14;102086.42;;;16.22;52.36
55687;BME280;41911;52.362;4.978;2023-05-08T00:17:45;102085.51;;;16.24;52.44
55687;BME280;41911;52.362;4.978;2023-05-08T00:18:16;102088.41;;;16.27;52.42
55687;BME280;41911;52.362;4.978;2023-05-08T00:18:47;102088.00;;;16.28;52.53
55687;BME280;41911;52.362;4.978;2023-05-08T00:19:18;102087.15;;;16.31;52.50
55687;BME280;41911;52.362;4.978;2023-05-08T00:19:49;102090.40;;;16.29;52.43
55687;BME280;41911;52.362;4.978;2023-05-08T00:20:20;102088.15;;;15.99;52.34
55687;BME280;41911;52.362;4.978;2023-05-08T00:20:51;102089.84;;;16.07;51.82
55687;BME280;41911;52.362;4.978;2023-05-08T00:21:22;102089.30;;;16.31;51.73
55687;BME280;41911;52.362;4.978;2023-05-08T00:21:53;102090.33;;;16.40;51.59
55687;BME280;41911;52.362;4.978;2023-05-08T00:22:24;102092.44;;;16.40;51.63
55687;BME280;41911;52.362;4.978;2023-05-08T00:22:55;102093.48;;;16.31;51.35
55687;BME280;41911;52.362;4.978;2023-05-08T00:23:26;102091.37;;;16.33;51.56
55687;BME280;41911;52.362;4.978;2023-05-08T00:23:57;102092.86;;;16.32;51.47
55687;BME280;41911;52.362;4.978;2023-05-08T00:24:28;102094.22;;;16.35;51.48
55687;BME280;41911;52.362;4.978;2023-05-08T00:24:59;102091.39;;;16.03;51.46
55687;BME280;41911;52.362;4.978;2023-05-08T00:25:30;102093.09;;;16.23;51.41
55687;BME280;41911;52.362;4.978;2023-05-08T00:26:01;102092.86;;;16.20;51.44
55687;BME280;41911;52.362;4.978;2023-05-08T00:26:31;102092.17;;;15.94;51.75
55687;BME280;41911;52.362;4.978;2023-05-08T00:27:02;102090.20;;;16.23;51.86
55687;BME280;41911;52.362;4.978;2023-05-08T00:27:33;102092.15;;;15.96;51.83
55687;BME280;41911;52.362;4.978;2023-05-08T00:28:04;102090.78;;;15.92;51.75
55687;BME280;41911;52.362;4.978;2023-05-08T00:28:35;102087.73;;;16.19;51.80
55687;BME280;41911;52.362;4.978;2023-05-08T00:29:06;102088.35;;;16.20;51.92
55687;BME280;41911;52.362;4.978;2023-05-08T00:29:37;102084.65;;;16.19;51.85
55687;BME280;41911;52.362;4.978;2023-05-08T00:30:09;102085.01;;;15.97;51.85
55687;BME280;41911;52.362;4.978;2023-05-08T00:30:40;102083.22;;;16.25;52.00
55687;BME280;41911;52.362;4.978;2023-05-08T00:31:11;102081.02;;;15.95;52.06
55687;BME280;41911;52.362;4.978;2023-05-08T00:31:42;102079.39;;;16.18;52.06
55687;BME280;41911;52.362;4.978;2023-05-08T00:32:13;102078.90;;;16.18;51.91
55687;BME280;41911;52.362;4.978;2023-05-08T00:32:46;102079.55;;;15.96;52.01
55687;BME280;41911;52.362;4.978;2023-05-08T00:33:17;102080.43;;;16.25;52.17
55687;BME280;41911;52.362;4.978;2023-05-08T00:33:48;102080.02;;;16.24;52.09
55687;BME280;41911;52.362;4.978;2023-05-08T00:34:19;102079.59;;;16.15;52.21
55687;BME280;41911;52.362;4.978;2023-05-08T00:34:50;102080.77;;;15.91;51.93
55687;BME280;41911;52.362;4.978;2023-05-08T00:35:21;102079.97;;;16.19;51.95
55687;BME280;41911;52.362;4.978;2023-05-08T00:35:58;102080.37;;;15.89;51.88
55687;BME280;41911;52.362;4.978;2023-05-08T00:36:29;102083.94;;;16.11;51.84
55687;BME280;41911;52.362;4.978;2023-05-08T00:37:01;102084.59;;;16.17;52.09
55687;BME280;41911;52.362;4.978;2023-05-08T00:37:33;102085.43;;;15.85;51.84
55687;BME280;41911;52.362;4.978;2023-05-08T00:38:03;102085.89;;;16.05;51.90
55687;BME280;41911;52.362;4.978;2023-05-08T00:38:35;102086.62;;;16.10;51.80
55687;BME280;41911;52.362;4.978;2023-05-08T00:39:07;102086.90;;;15.80;51.83
55687;BME280;41911;52.362;4.978;2023-05-08T00:39:37;102086.72;;;16.08;51.87
55687;BME280;41911;52.362;4.978;2023-05-08T00:40:09;102089.39;;;15.70;51.76
55687;BME280;41911;52.362;4.978;2023-05-08T00:40:40;102088.31;;;16.05;51.41
55687;BME280;41911;52.362;4.978;2023-05-08T00:41:12;102087.91;;;15.96;51.36
55687;BME280;41911;52.362;4.978;2023-05-08T00:41:42;102088.22;;;15.74;51.48
55687;BME280;41911;52.362;4.978;2023-05-08T00:42:13;102084.06;;;15.73;51.52
55687;BME280;41911;52.362;4.978;2023-05-08T00:42:44;102086.98;;;15.99;51.40
55687;BME280;41911;52.362;4.978;2023-05-08T00:43:15;102086.60;;;15.99;51.61
55687;BME280;41911;52.362;4.978;2023-05-08T00:43:46;102085.92;;;15.97;51.52
55687;BME280;41911;52.362;4.978;2023-05-08T00:44:17;102084.46;;;15.88;51.61
55687;BME280;41911;52.362;4.978;2023-05-08T00:44:48;102086.40;;;15.94;51.45
55687;BME280;41911;52.362;4.978;2023-05-08T00:45:19;102085.17;;;15.36;51.59
55687;BME280;41911;52.362;4.978;2023-05-08T00:45:50;102085.83;;;15.92;51.51
55687;BME280;41911;52.362;4.978;2023-05-08T00:46:22;102085.10;;;15.92;51.62
55687;BME280;41911;52.362;4.978;2023-05-08T00:46:53;102084.29;;;15.92;51.64
55687;BME280;41911;52.362;4.978;2023-05-08T00:47:24;102086.78;;;15.56;51.91
55687;BME280;41911;52.362;4.978;2023-05-08T00:47:55;102086.64;;;15.90;51.78
55687;BME280;41911;52.362;4.978;2023-05-08T00:48:28;102087.54;;;16.17;51.68
55687;BME280;41911;52.362;4.978;2023-05-08T00:49:00;102087.79;;;15.86;51.66
55687;BME280;41911;52.362;4.978;2023-05-08T00:49:31;102086.99;;;15.86;51.77
55687;BME280;41911;52.362;4.978;2023-05-08T00:50:03;102087.13;;;15.85;51.73
55687;BME280;41911;52.362;4.978;2023-05-08T00:50:35;102087.94;;;15.55;51.74
55687;BME280;41911;52.362;4.978;2023-05-08T00:51:08;102086.07;;;15.81;51.64
55687;BME280;41911;52.362;4.978;2023-05-08T00:51:41;102086.40;;;15.86;51.67
55687;BME280;41911;52.362;4.978;2023-05-08T00:52:13;102087.99;;;15.76;51.68
55687;BME280;41911;52.362;4.978;2023-05-08T00:52:45;102089.30;;;15.74;51.88
55687;BME280;41911;52.362;4.978;2023-05-08T00:53:18;102086.90;;;15.73;51.90
55687;BME280;41911;52.362;4.978;2023-05-08T00:53:50;102085.55;;;15.74;52.03
55687;BME280;41911;52.362;4.978;2023-05-08T00:54:21;102087.46;;;15.45;52.14
55687;BME280;41911;52.362;4.978;2023-05-08T00:54:53;102087.01;;;15.62;51.96
55687;BME280;41911;52.362;4.978;2023-05-08T00:55:25;102085.26;;;15.64;51.96
55687;BME280;41911;52.362;4.978;2023-05-08T00:55:56;102085.84;;;15.59;51.93
55687;BME280;41911;52.362;4.978;2023-05-08T00:56:27;102085.70;;;15.63;51.66
55687;BME280;41911;52.362;4.978;2023-05-08T00:56:59;102084.70;;;15.46;51.59
55687;BME280;41911;52.362;4.978;2023-05-08T00:57:32;102083.50;;;15.45;51.60
55687;BME280;41911;52.362;4.978;2023-05-08T00:58:03;102082.55;;;15.73;51.63
55687;BME280;41911;52.362;4.978;2023-05-08T00:58:34;102081.73;;;15.52;51.67
55687;BME280;41911;52.362;4.978;2023-05-08T00:59:08;102081.45;;;15.46;51.73
55687;BME280;41911;52.362;4.978;2023-05-08T00:59:43;102082.38;;;15.45;51.42
55687;BME280;41911;52.362;4.978;2023-05-08T01:00:17;102078.13;;;15.47;51.42
55687;BME280;41911;52.362;4.978;2023-05-08T01:00:50;102080.10;;;15.42;51.26
55687;BME280;41911;52.362;4.978;2023-05-08T01:01:24;102078.53;;;15.37;51.07
55687;BME280;41911;52.362;4.978;2023-05-08T01:01:56;102080.12;;;15.35;51.04
55687;BME280;41911;52.362;4.978;2023-05-08T01:02:29;102078.26;;;15.35;51.17
55687;BME280;41911;52.362;4.978;2023-05-08T01:03:01;102078.03;;;15.49;51.25
55687;BME280;41911;52.362;4.978;2023-05-08T01:03:34;102075.52;;;15.30;50.98
55687;BME280;41911;52.362;4.978;2023-05-08T01:04:06;102076.78;;;15.27;50.85
55687;BME280;41911;52.362;4.978;2023-05-08T01:04:38;102079.09;;;15.28;50.99
55687;BME280;41911;52.362;4.978;2023-05-08T01:05:10;102078.03;;;15.30;51.49
55687;BME280;41911;52.362;4.978;2023-05-08T01:05:42;102078.59;;;15.32;51.84
55687;BME280;41911;52.362;4.978;2023-05-08T01:06:13;102079.84;;;15.35;51.77
55687;BME280;41911;52.362;4.978;2023-05-08T01:06:44;102080.79;;;15.35;51.75
55687;BME280;41911;52.362;4.978;2023-05-08T01:07:16;102080.90;;;15.37;51.65
55687;BME280;41911;52.362;4.978;2023-05-08T01:07:47;102083.37;;;15.66;51.77
55687;BME280;41911;52.362;4.978;2023-05-08T01:08:18;102084.91;;;15.38;51.88
55687;BME280;41911;52.362;4.978;2023-05-08T01:08:49;102083.54;;;15.38;51.95
55687;BME280;41911;52.362;4.978;2023-05-08T01:09:21;102084.35;;;15.38;51.93
55687;BME280;41911;52.362;4.978;2023-05-08T01:09:52;102083.69;;;15.45;51.87
55687;BME280;41911;52.362;4.978;2023-05-08T01:10:24;102084.64;;;15.71;51.65
55687;BME280;41911;52.362;4.978;2023-05-08T01:11:08;102085.59;;;15.41;51.28
55687;BME280;41911;52.362;4.978;2023-05-08T01:11:48;102085.64;;;15.29;50.82
55687;BME280;41911;52.362;4.978;2023-05-08T01:12:35;102084.74;;;15.28;50.63
55687;BME280;41911;52.362;4.978;2023-05-08T01:13:19;102087.81;;;15.33;51.43
55687;BME280;41911;52.362;4.978;2023-05-08T01:14:04;102085.75;;;15.26;51.49
55687;BME280;41911;52.362;4.978;2023-05-08T01:14:48;102084.93;;;15.20;51.38
55687;BME280;41911;52.362;4.978;2023-05-08T01:15:26;102085.87;;;15.62;51.41
55687;BME280;41911;52.362;4.978;2023-05-08T01:16:08;102086.21;;;15.26;51.16
55687;BME280;41911;52.362;4.978;2023-05-08T01:16:47;102085.63;;;15.55;51.22
55687;BME280;41911;52.362;4.978;2023-05-08T01:17:26;102087.58;;;15.24;51.28
55687;BME280;41911;52.362;4.978;2023-05-08T01:18:10;102086.26;;;15.21;51.18
55687;BME280;41911;52.362;4.978;2023-05-08T01:18:49;102086.96;;;15.17;51.31
55687;BME280;41911;52.362;4.978;2023-05-08T01:19:41;102088.20;;;15.69;51.31
55687;BME280;41911;52.362;4.978;2023-05-08T01:20:31;102087.53;;;15.44;51.15
55687;BME280;41911;52.362;4.978;2023-05-08T01:21:11;102087.60;;;15.22;51.21
55687;BME280;41911;52.362;4.978;2023-05-08T01:21:58;102090.51;;;15.17;51.13
55687;BME280;41911;52.362;4.978;2023-05-08T01:23:07;102088.85;;;15.04;51.16
55687;BME280;41911;52.362;4.978;2023-05-08T01:24:39;102083.33;;;15.76;51.14
55687;BME280;41911;52.362;4.978;2023-05-08T01:25:37;102083.40;;;15.61;51.06
55687;BME280;41911;52.362;4.978;2023-05-08T01:27:07;102082.30;;;15.13;51.01
55687;BME280;41911;52.362;4.978;2023-05-08T01:28:17;102080.50;;;15.35;51.21
55687;BME280;41911;52.362;4.978;2023-05-08T01:29:22;102081.81;;;15.17;51.58
55687;BME280;41911;52.362;4.978;2023-05-08T01:30:15;102082.81;;;15.37;51.43
55687;BME280;41911;52.362;4.978;2023-05-08T01:30:58;102086.17;;;15.13;51.37
55687;BME280;41911;52.362;4.978;2023-05-08T01:31:46;102085.24;;;15.14;51.36
55687;BME280;41911;52.362;4.978;2023-05-08T01:32:24;102086.76;;;15.06;51.15
55687;BME280;41911;52.362;4.978;2023-05-08T01:33:00;102088.80;;;15.03;51.07
55687;BME280;41911;52.362;4.978;2023-05-08T01:33:35;102088.54;;;14.99;51.27
55687;BME280;41911;52.362;4.978;2023-05-08T01:34:13;102088.27;;;14.96;51.07
55687;BME280;41911;52.362;4.978;2023-05-08T01:34:50;102091.20;;;15.48;51.01
55687;BME280;41911;52.362;4.978;2023-05-08T01:35:30;102090.66;;;15.47;51.04
55687;BME280;41911;52.362;4.978;2023-05-08T01:36:16;102087.77;;;15.18;51.04
55687;BME280;41911;52.362;4.978;2023-05-08T01:36:52;102089.79;;;14.94;51.01
55687;BME280;41911;52.362;4.978;2023-05-08T01:37:29;102087.77;;;15.53;51.07
55687;BME280;41911;52.362;4.978;2023-05-08T01:38:07;102085.16;;;15.31;51.12
55687;BME280;41911;52.362;4.978;2023-05-08T01:38:49;102086.49;;;14.94;51.08
55687;BME280;41911;52.362;4.978;2023-05-08T01:39:32;102085.23;;;15.30;51.34
55687;BME280;41911;52.362;4.978;2023-05-08T01:40:11;102086.32;;;15.24;51.40
55687;BME280;41911;52.362;4.978;2023-05-08T01:40:51;102085.51;;;14.87;51.39
55687;BME280;41911;52.362;4.978;2023-05-08T01:41:25;102084.67;;;15.25;51.60
55687;BME280;41911;52.362;4.978;2023-05-08T01:42:03;102085.10;;;14.91;51.78
55687;BME280;41911;52.362;4.978;2023-05-08T01:42:45;102087.07;;;15.51;51.84
55687;BME280;41911;52.362;4.978;2023-05-08T01:43:24;102087.56;;;15.31;51.88
55687;BME280;41911;52.362;4.978;2023-05-08T01:44:09;102088.32;;;14.96;51.76
55687;BME280;41911;52.362;4.978;2023-05-08T01:44:46;102091.14;;;15.26;51.84
55687;BME280;41911;52.362;4.978;2023-05-08T01:45:24;102090.80;;;15.54;51.58
55687;BME280;41911;52.362;4.978;2023-05-08T01:45:58;102092.10;;;15.33;51.65
55687;BME280;41911;52.362;4.978;2023-05-08T01:46:35;102090.53;;;15.35;51.67
55687;BME280;41911;52.362;4.978;2023-05-08T01:47:08;102091.31;;;15.27;51.51
55687;BME280;41911;52.362;4.978;2023-05-08T01:47:48;102091.40;;;15.63;51.44
55687;BME280;41911;52.362;4.978;2023-05-08T01:48:27;102091.45;;;15.64;51.35
55687;BME280;41911;52.362;4.978;2023-05-08T01:49:07;102092.01;;;15.15;51.35
55687;BME280;41911;52.362;4.978;2023-05-08T01:49:42;102090.55;;;15.29;51.31
55687;BME280;41911;52.362;4.978;2023-05-08T01:50:21;102091.60;;;15.36;51.19
55687;BME280;41911;52.362;4.978;2023-05-08T01:51:03;102093.62;;;15.35;51.11
55687;BME280;41911;52.362;4.978;2023-05-08T01:51:40;102090.11;;;14.97;50.99
55687;BME280;41911;52.362;4.978;2023-05-08T01:52:17;102089.29;;;14.96;51.11
55687;BME280;41911;52.362;4.978;2023-05-08T01:52:55;102087.65;;;14.93;50.88
55687;BME280;41911;52.362;4.978;2023-05-08T01:53:29;102088.74;;;14.97;51.06
55687;BME280;41911;52.362;4.978;2023-05-08T01:54:06;102086.84;;;15.30;50.97
55687;BME280;41911;52.362;4.978;2023-05-08T01:54:41;102087.80;;;15.49;50.93
55687;BME280;41911;52.362;4.978;2023-05-08T01:55:23;102086.76;;;15.24;50.73
55687;BME280;41911;52.362;4.978;2023-05-08T01:56:02;102087.10;;;14.75;50.80
55687;BME280;41911;52.362;4.978;2023-05-08T01:56:38;102088.03;;;15.26;50.64
55687;BME280;41911;52.362;4.978;2023-05-08T01:57:10;102085.55;;;14.80;50.75
55687;BME280;41911;52.362;4.978;2023-05-08T01:57:45;102088.05;;;14.79;50.89
55687;BME280;41911;52.362;4.978;2023-05-08T01:58:17;102087.07;;;14.67;50.83
55687;BME280;41911;52.362;4.978;2023-05-08T01:58:48;102087.98;;;14.71;50.83
55687;BME280;41911;52.362;4.978;2023-05-08T01:59:22;102087.48;;;15.29;50.89
55687;BME280;41911;52.362;4.978;2023-05-08T01:59:55;102087.71;;;15.13;50.95
55687;BME280;41911;52.362;4.978;2023-05-08T02:00:27;102089.51;;;14.57;51.03
55687;BME280;41911;52.362;4.978;2023-05-08T02:01:00;102089.49;;;14.88;51.09
55687;BME280;41911;52.362;4.978;2023-05-08T02:01:32;102090.02;;;14.49;50.82
55687;BME280;41911;52.362;4.978;2023-05-08T02:02:04;102090.71;;;15.05;50.82
55687;BME280;41911;52.362;4.978;2023-05-08T02:02:36;102089.52;;;14.81;50.83
55687;BME280;41911;52.362;4.978;2023-05-08T02:03:08;102091.24;;;14.59;50.90
55687;BME280;41911;52.362;4.978;2023-05-08T02:03:42;102091.62;;;14.79;50.87
55687;BME280;41911;52.362;4.978;2023-05-08T02:04:14;102093.31;;;14.87;50.88
55687;BME280;41911;52.362;4.978;2023-05-08T02:04:47;102092.89;;;15.06;50.88
55687;BME280;41911;52.362;4.978;2023-05-08T02:05:20;102094.17;;;15.15;50.99
55687;BME280;41911;52.362;4.978;2023-05-08T02:05:54;102094.55;;;15.08;51.00
55687;BME280;41911;52.362;4.978;2023-05-08T02:06:26;102092.28;;;15.14;51.00
55687;BME280;41911;52.362;4.978;2023-05-08T02:06:58;102095.11;;;15.05;51.01
55687;BME280;41911;52.362;4.978;2023-05-08T02:07:32;102096.00;;;15.12;51.04
55687;BME280;41911;52.362;4.978;2023-05-08T02:08:06;102097.19;;;15.10;50.94
55687;BME280;41911;52.362;4.978;2023-05-08T02:08:39;102096.91;;;14.76;51.08
55687;BME280;41911;52.362;4.978;2023-05-08T02:09:11;102098.43;;;14.48;50.96
55687;BME280;41911;52.362;4.978;2023-05-08T02:09:43;102100.30;;;15.07;51.12
55687;BME280;41911;52.362;4.978;2023-05-08T02:10:15;102100.29;;;14.85;51.07
55687;BME280;41911;52.362;4.978;2023-05-08T02:10:49;102100.89;;;15.07;51.10
55687;BME280;41911;52.362;4.978;2023-05-08T02:11:21;102099.22;;;14.84;51.03
55687;BME280;41911;52.362;4.978;2023-05-08T02:11:54;102100.05;;;14.76;51.00
55687;BME280;41911;52.362;4.978;2023-05-08T02:12:27;102099.40;;;14.99;51.05
55687;BME280;41911;52.362;4.978;2023-05-08T02:12:59;102102.71;;;14.78;51.16
55687;BME280;41911;52.362;4.978;2023-05-08T02:13:33;102101.94;;;15.16;51.16
55687;BME280;41911;52.362;4.978;2023-05-08T02:14:05;102101.76;;;15.10;51.27
55687;BME280;41911;52.362;4.978;2023-05-08T02:14:39;102102.14;;;15.19;51.30
55687;BME280;41911;52.362;4.978;2023-05-08T02:15:12;102100.56;;;15.21;51.51
55687;BME280;41911;52.362;4.978;2023-05-08T02:15:46;102102.75;;;15.23;51.53
55687;BME280;41911;52.362;4.978;2023-05-08T02:16:19;102103.03;;;15.26;51.80
55687;BME280;41911;52.362;4.978;2023-05-08T02:16:51;102101.03;;;15.27;51.79
55687;BME280;41911;52.362;4.978;2023-05-08T02:17:24;102101.57;;;14.58;51.88
55687;BME280;41911;52.362;4.978;2023-05-08T02:17:57;102100.82;;;15.23;51.89
55687;BME280;41911;52.362;4.978;2023-05-08T02:18:29;102102.83;;;15.01;51.86
55687;BME280;41911;52.362;4.978;2023-05-08T02:19:02;102102.85;;;15.31;51.88
55687;BME280;41911;52.362;4.978;2023-05-08T02:19:35;102100.47;;;15.04;51.93
55687;BME280;41911;52.362;4.978;2023-05-08T02:20:10;102099.58;;;14.74;51.73
55687;BME280;41911;52.362;4.978;2023-05-08T02:20:41;102098.09;;;15.33;51.72
55687;BME280;41911;52.362;4.978;2023-05-08T02:21:13;102099.30;;;15.00;51.59
55687;BME280;41911;52.362;4.978;2023-05-08T02:21:45;102097.82;;;15.32;51.67
55687;BME280;41911;52.362;4.978;2023-05-08T02:22:17;102098.97;;;15.03;51.74
55687;BME280;41911;52.362;4.978;2023-05-08T02:22:50;102100.09;;;14.95;51.71
55687;BME280;41911;52.362;4.978;2023-05-08T02:23:23;102102.64;;;15.58;51.61
55687;BME280;41911;52.362;4.978;2023-05-08T02:23:56;102102.99;;;14.76;51.30
55687;BME280;41911;52.362;4.978;2023-05-08T02:24:28;102102.00;;;15.24;51.46
55687;BME280;41911;52.362;4.978;2023-05-08T02:25:00;102099.84;;;15.29;51.64
55687;BME280;41911;52.362;4.978;2023-05-08T02:25:32;102100.95;;;14.71;51.75
55687;BME280;41911;52.362;4.978;2023-05-08T02:26:03;102103.43;;;15.21;51.72
55687;BME280;41911;52.362;4.978;2023-05-08T02:26:35;102101.44;;;15.20;51.63
55687;BME280;41911;52.362;4.978;2023-05-08T02:27:08;102103.37;;;15.28;51.65
55687;BME280;41911;52.362;4.978;2023-05-08T02:27:42;102102.55;;;15.13;51.64
55687;BME280;41911;52.362;4.978;2023-05-08T02:28:15;102104.19;;;14.96;51.41
55687;BME280;41911;52.362;4.978;2023-05-08T02:28:47;102103.63;;;15.14;50.93
55687;BME280;41911;52.362;4.978;2023-05-08T02:29:21;102105.88;;;14.90;50.86
55687;BME280;41911;52.362;4.978;2023-05-08T02:29:53;102104.24;;;15.17;50.79
55687;BME280;41911;52.362;4.978;2023-05-08T02:30:25;102104.34;;;14.50;50.71
55687;BME280;41911;52.362;4.978;2023-05-08T02:30:58;102104.19;;;14.79;50.86
55687;BME280;41911;52.362;4.978;2023-05-08T02:31:30;102103.83;;;14.89;51.04
55687;BME280;41911;52.362;4.978;2023-05-08T02:32:02;102105.65;;;14.90;51.40
55687;BME280;41911;52.362;4.978;2023-05-08T02:32:33;102105.85;;;14.92;51.59
55687;BME280;41911;52.362;4.978;2023-05-08T02:33:07;102105.07;;;15.21;51.68
55687;BME280;41911;52.362;4.978;2023-05-08T02:33:41;102104.73;;;15.21;51.58
55687;BME280;41911;52.362;4.978;2023-05-08T02:34:12;102107.13;;;15.21;51.68
55687;BME280;41911;52.362;4.978;2023-05-08T02:34:44;102107.37;;;14.64;51.72
55687;BME280;41911;52.362;4.978;2023-05-08T02:35:18;102106.40;;;15.15;51.72
55687;BME280;41911;52.362;4.978;2023-05-08T02:35:50;102108.71;;;15.23;51.78
55687;BME280;41911;52.362;4.978;2023-05-08T02:36:22;102106.55;;;15.22;51.83
55687;BME280;41911;52.362;4.978;2023-05-08T02:36:54;102108.48;;;15.13;51.88
55687;BME280;41911;52.362;4.978;2023-05-08T02:37:26;102108.91;;;14.82;51.77
55687;BME280;41911;52.362;4.978;2023-05-08T02:37:59;102108.57;;;15.16;51.77
55687;BME280;41911;52.362;4.978;2023-05-08T02:38:34;102108.70;;;15.00;51.82
55687;BME280;41911;52.362;4.978;2023-05-08T02:39:10;102108.50;;;15.07;51.89
55687;BME280;41911;52.362;4.978;2023-05-08T02:39:44;102109.40;;;15.12;51.66
55687;BME280;41911;52.362;4.978;2023-05-08T02:40:17;102109.11;;;14.96;51.83
55687;BME280;41911;52.362;4.978;2023-05-08T02:40:53;102109.03;;;15.04;51.66
55687;BME280;41911;52.362;4.978;2023-05-08T02:41:31;102108.77;;;15.12;51.73
55687;BME280;41911;52.362;4.978;2023-05-08T02:42:03;102106.94;;;15.05;51.48
55687;BME280;41911;52.362;4.978;2023-05-08T02:42:34;102106.43;;;14.69;51.16
55687;BME280;41911;52.362;4.978;2023-05-08T02:43:05;102106.94;;;15.03;51.24
55687;BME280;41911;52.362;4.978;2023-05-08T02:43:36;102106.19;;;14.99;51.22
55687;BME280;41911;52.362;4.978;2023-05-08T02:44:07;102106.36;;;15.06;50.93
55687;BME280;41911;52.362;4.978;2023-05-08T02:44:38;102104.06;;;14.93;50.94
55687;BME280;41911;52.362;4.978;2023-05-08T02:45:10;102104.52;;;15.11;50.92
55687;BME280;41911;52.362;4.978;2023-05-08T02:45:49;102105.56;;;15.08;50.89
55687;BME280;41911;52.362;4.978;2023-05-08T02:46:26;102103.89;;;14.97;50.92
55687;BME280;41911;52.362;4.978;2023-05-08T02:47:09;102103.99;;;14.91;50.92
55687;BME280;41911;52.362;4.978;2023-05-08T02:47:51;102100.44;;;14.51;50.91
55687;BME280;41911;52.362;4.978;2023-05-08T02:48:29;102100.03;;;14.95;50.96
55687;BME280;41911;52.362;4.978;2023-05-08T02:49:10;102099.14;;;14.86;50.98
55687;BME280;41911;52.362;4.978;2023-05-08T02:49:47;102097.37;;;14.93;50.96
55687;BME280;41911;52.362;4.978;2023-05-08T02:50:25;102095.06;;;15.15;50.98
55687;BME280;41911;52.362;4.978;2023-05-08T02:51:07;102093.99;;;14.65;51.00
55687;BME280;41911;52.362;4.978;2023-05-08T02:51:48;102091.72;;;14.88;51.07
55687;BME280;41911;52.362;4.978;2023-05-08T02:52:26;102089.41;;;14.94;50.96
55687;BME280;41911;52.362;4.978;2023-05-08T02:53:05;102088.21;;;14.78;50.94
55687;BME280;41911;52.362;4.978;2023-05-08T02:53:45;102087.47;;;14.91;50.92
55687;BME280;41911;52.362;4.978;2023-05-08T02:54:22;102087.17;;;14.88;51.01
55687;BME280;41911;52.362;4.978;2023-05-08T02:54:58;102085.26;;;14.89;50.94
55687;BME280;41911;52.362;4.978;2023-05-08T02:55:41;102086.99;;;14.87;50.97
55687;BME280;41911;52.362;4.978;2023-05-08T02:56:24;102085.41;;;14.57;50.97
55687;BME280;41911;52.362;4.978;2023-05-08T02:57:02;102083.19;;;14.76;51.01
55687;BME280;41911;52.362;4.978;2023-05-08T02:57:42;102086.21;;;14.78;51.24
55687;BME280;41911;52.362;4.978;2023-05-08T02:58:21;102083.19;;;14.80;51.38
55687;BME280;41911;52.362;4.978;2023-05-08T02:59:03;102086.10;;;14.53;51.61
55687;BME280;41911;52.362;4.978;2023-05-08T02:59:41;102083.74;;;14.91;51.81
55687;BME280;41911;52.362;4.978;2023-05-08T03:00:16;102083.59;;;14.86;51.92
55687;BME280;41911;52.362;4.978;2023-05-08T03:00:57;102084.55;;;14.97;51.92
55687;BME280;41911;52.362;4.978;2023-05-08T03:01:35;102085.39;;;15.20;51.91
55687;BME280;41911;52.362;4.978;2023-05-08T03:02:11;102085.66;;;14.99;51.90